KFBG

Simmons AAF Airport

Fort Bragg, North Carolina, USA
METAR KFBG 151456Z AUTO 00000KT 10SM CLR 30/22 A3008 RMK AO2 SLP187 T03000219 52011
Observed Flight Rules
Aug-15 @ 14:56 UTC (4 minutes ago) Visual Flight Rules
Visibility Clouds
10 miles
  • Clear skies
Temperatures Readings
Current 30°C / 86°F
Dewpoint 22°C / 72°F
Humidity 62%
Altimeter 30.08" Hg
Pressure 1018.7 hPa
Elevation 74
METAR KFBG 151456Z AUTO 00000KT 10SM CLR 30/22 A3008 RMK AO2 SLP187 T03000219 52011
Observed Flight Rules
Aug-15 @ 14:56 UTC
(4 minutes ago)
VFR
Clouds
  • Clear skies
Temperature Dewpoint
30°C / 86°F 22°C / 72°F
Humidity Altimeter Pressure
62% 30.08" Hg 1018.7 hPa